sensor_id;sensor_type;location;lat;lon;timestamp;temperature;humidity
26081;DHT22;13991;51.174;4.438;2022-12-11T00:02:28;3.80;99.90
26081;DHT22;13991;51.174;4.438;2022-12-11T00:04:53;3.70;99.90
26081;DHT22;13991;51.174;4.438;2022-12-11T00:07:19;3.80;99.90
26081;DHT22;13991;51.174;4.438;2022-12-11T00:09:45;3.70;99.90
26081;DHT22;13991;51.174;4.438;2022-12-11T00:12:10;3.70;99.90
26081;DHT22;13991;51.174;4.438;2022-12-11T00:14:36;3.70;99.90
26081;DHT22;13991;51.174;4.438;2022-12-11T00:17:02;3.70;99.90
26081;DHT22;13991;51.174;4.438;2022-12-11T00:19:28;3.60;99.90
26081;DHT22;13991;51.174;4.438;2022-12-11T00:21:53;3.70;99.90
26081;DHT22;13991;51.174;4.438;2022-12-11T00:24:19;3.60;99.90
26081;DHT22;13991;51.174;4.438;2022-12-11T00:26:45;3.50;99.90
26081;DHT22;13991;51.174;4.438;2022-12-11T00:29:10;3.60;99.90
26081;DHT22;13991;51.174;4.438;2022-12-11T00:31:40;3.70;99.90
26081;DHT22;13991;51.174;4.438;2022-12-11T00:34:06;3.70;99.90
26081;DHT22;13991;51.174;4.438;2022-12-11T00:36:31;3.70;99.90
26081;DHT22;13991;51.174;4.438;2022-12-11T00:38:57;3.80;99.90
26081;DHT22;13991;51.174;4.438;2022-12-11T00:41:23;3.80;99.90
26081;DHT22;13991;51.174;4.438;2022-12-11T00:43:49;3.90;99.90
26081;DHT22;13991;51.174;4.438;2022-12-11T00:46:15;3.80;99.90
26081;DHT22;13991;51.174;4.438;2022-12-11T00:48:41;3.70;99.90
26081;DHT22;13991;51.174;4.438;2022-12-11T00:51:07;3.80;99.90
26081;DHT22;13991;51.174;4.438;2022-12-11T00:53:33;3.80;99.90
26081;DHT22;13991;51.174;4.438;2022-12-11T00:55:59;3.90;99.90
26081;DHT22;13991;51.174;4.438;2022-12-11T00:58:24;3.70;99.90
26081;DHT22;13991;51.174;4.438;2022-12-11T01:00:50;3.90;99.90
26081;DHT22;13991;51.174;4.438;2022-12-11T01:03:16;3.90;99.90
26081;DHT22;13991;51.174;4.438;2022-12-11T01:05:50;3.90;99.90
26081;DHT22;13991;51.174;4.438;2022-12-11T01:08:17;3.90;99.90
26081;DHT22;13991;51.174;4.438;2022-12-11T01:10:42;3.80;99.90
26081;DHT22;13991;51.174;4.438;2022-12-11T01:13:09;3.90;99.90
26081;DHT22;13991;51.174;4.438;2022-12-11T01:15:41;3.80;99.90
26081;DHT22;13991;51.174;4.438;2022-12-11T01:18:08;3.80;99.90
26081;DHT22;13991;51.174;4.438;2022-12-11T01:20:34;3.80;99.90
26081;DHT22;13991;51.174;4.438;2022-12-11T01:23:01;3.80;99.90
26081;DHT22;13991;51.174;4.438;2022-12-11T01:25:27;3.90;99.90
26081;DHT22;13991;51.174;4.438;2022-12-11T01:27:54;3.90;99.90
26081;DHT22;13991;51.174;4.438;2022-12-11T01:30:22;3.90;99.90
26081;DHT22;13991;51.174;4.438;2022-12-11T01:32:48;4.00;99.90
26081;DHT22;13991;51.174;4.438;2022-12-11T01:35:15;3.90;99.90
26081;DHT22;13991;51.174;4.438;2022-12-11T01:37:41;3.80;99.90
26081;DHT22;13991;51.174;4.438;2022-12-11T01:40:08;3.80;99.90
26081;DHT22;13991;51.174;4.438;2022-12-11T01:42:34;3.90;99.90
26081;DHT22;13991;51.174;4.438;2022-12-11T01:45:27;3.70;99.90
26081;DHT22;13991;51.174;4.438;2022-12-11T01:48:05;3.80;99.90
26081;DHT22;13991;51.174;4.438;2022-12-11T01:50:46;3.80;99.90
26081;DHT22;13991;51.174;4.438;2022-12-11T01:53:17;3.80;99.90
26081;DHT22;13991;51.174;4.438;2022-12-11T01:55:45;3.80;99.90
26081;DHT22;13991;51.174;4.438;2022-12-11T01:58:11;3.80;99.90
26081;DHT22;13991;51.174;4.438;2022-12-11T02:00:37;3.90;99.90
26081;DHT22;13991;51.174;4.438;2022-12-11T02:03:03;3.90;99.90
26081;DHT22;13991;51.174;4.438;2022-12-11T02:05:29;4.00;99.90
26081;DHT22;13991;51.174;4.438;2022-12-11T02:07:57;3.90;99.90
26081;DHT22;13991;51.174;4.438;2022-12-11T02:10:34;3.80;99.90
26081;DHT22;13991;51.174;4.438;2022-12-11T02:13:08;3.80;99.90
26081;DHT22;13991;51.174;4.438;2022-12-11T02:15:46;3.90;99.90
26081;DHT22;13991;51.174;4.438;2022-12-11T02:19:06;3.80;99.90
26081;DHT22;13991;51.174;4.438;2022-12-11T02:21:30;3.80;99.90
26081;DHT22;13991;51.174;4.438;2022-12-11T02:24:06;3.80;99.90
26081;DHT22;13991;51.174;4.438;2022-12-11T02:29:10;3.90;99.90
26081;DHT22;13991;51.174;4.438;2022-12-11T02:32:02;3.90;99.90
26081;DHT22;13991;51.174;4.438;2022-12-11T02:34:57;4.00;99.90
26081;DHT22;13991;51.174;4.438;2022-12-11T02:37:26;4.10;99.90
26081;DHT22;13991;51.174;4.438;2022-12-11T02:39:54;4.00;99.90
26081;DHT22;13991;51.174;4.438;2022-12-11T02:42:24;4.00;99.90
26081;DHT22;13991;51.174;4.438;2022-12-11T02:44:52;4.10;99.90
26081;DHT22;13991;51.174;4.438;2022-12-11T02:47:19;4.00;99.90
26081;DHT22;13991;51.174;4.438;2022-12-11T02:49:48;3.90;99.90
26081;DHT22;13991;51.174;4.438;2022-12-11T02:52:18;3.90;99.90
26081;DHT22;13991;51.174;4.438;2022-12-11T02:54:45;3.90;99.90
26081;DHT22;13991;51.174;4.438;2022-12-11T02:57:59;4.00;99.90
26081;DHT22;13991;51.174;4.438;2022-12-11T03:00:05;4.00;99.90
26081;DHT22;13991;51.174;4.438;2022-12-11T03:02:31;4.00;99.90
26081;DHT22;13991;51.174;4.438;2022-12-11T03:04:58;4.10;99.90
26081;DHT22;13991;51.174;4.438;2022-12-11T03:07:27;4.10;99.90
26081;DHT22;13991;51.174;4.438;2022-12-11T03:09:54;4.10;99.90
26081;DHT22;13991;51.174;4.438;2022-12-11T03:12:27;4.20;99.90
26081;DHT22;13991;51.174;4.438;2022-12-11T03:14:53;4.10;99.90
26081;DHT22;13991;51.174;4.438;2022-12-11T03:17:26;4.00;99.90
26081;DHT22;13991;51.174;4.438;2022-12-11T03:20:05;4.10;99.90
26081;DHT22;13991;51.174;4.438;2022-12-11T03:22:48;4.00;99.90
26081;DHT22;13991;51.174;4.438;2022-12-11T03:25:32;4.00;99.90
26081;DHT22;13991;51.174;4.438;2022-12-11T03:28:15;4.00;99.90
26081;DHT22;13991;51.174;4.438;2022-12-11T03:30:45;4.10;99.90
26081;DHT22;13991;51.174;4.438;2022-12-11T03:33:35;4.00;99.90
26081;DHT22;13991;51.174;4.438;2022-12-11T03:36:16;4.00;99.90
26081;DHT22;13991;51.174;4.438;2022-12-11T03:38:47;4.00;99.90
26081;DHT22;13991;51.174;4.438;2022-12-11T03:41:16;4.10;99.90
26081;DHT22;13991;51.174;4.438;2022-12-11T03:43:43;4.10;99.90
26081;DHT22;13991;51.174;4.438;2022-12-11T03:46:10;4.10;99.90
26081;DHT22;13991;51.174;4.438;2022-12-11T03:48:39;4.10;99.90
26081;DHT22;13991;51.174;4.438;2022-12-11T03:51:07;4.10;99.90
26081;DHT22;13991;51.174;4.438;2022-12-11T03:53:36;4.20;99.90
26081;DHT22;13991;51.174;4.438;2022-12-11T03:56:08;4.30;99.90
26081;DHT22;13991;51.174;4.438;2022-12-11T03:58:34;4.30;99.90
26081;DHT22;13991;51.174;4.438;2022-12-11T04:01:00;4.20;99.90
26081;DHT22;13991;51.174;4.438;2022-12-11T04:03:26;4.20;99.90
26081;DHT22;13991;51.174;4.438;2022-12-11T04:05:53;4.20;99.90
26081;DHT22;13991;51.174;4.438;2022-12-11T04:08:20;4.20;99.90
26081;DHT22;13991;51.174;4.438;2022-12-11T04:10:47;4.20;99.90
26081;DHT22;13991;51.174;4.438;2022-12-11T04:13:13;4.20;99.90
26081;DHT22;13991;51.174;4.438;2022-12-11T04:15:39;4.10;99.90
26081;DHT22;13991;51.174;4.438;2022-12-11T04:18:06;4.20;99.90
26081;DHT22;13991;51.174;4.438;2022-12-11T04:20:55;4.20;99.90
26081;DHT22;13991;51.174;4.438;2022-12-11T04:23:39;4.20;99.90
26081;DHT22;13991;51.174;4.438;2022-12-11T04:26:23;4.20;99.90
26081;DHT22;13991;51.174;4.438;2022-12-11T04:28:49;4.30;99.90
26081;DHT22;13991;51.174;4.438;2022-12-11T04:31:20;4.30;99.90
26081;DHT22;13991;51.174;4.438;2022-12-11T04:33:46;4.30;99.90
26081;DHT22;13991;51.174;4.438;2022-12-11T04:36:13;4.30;99.90
26081;DHT22;13991;51.174;4.438;2022-12-11T04:38:39;4.30;99.90
26081;DHT22;13991;51.174;4.438;2022-12-11T04:41:12;4.20;99.90
26081;DHT22;13991;51.174;4.438;2022-12-11T04:43:39;4.10;99.90
26081;DHT22;13991;51.174;4.438;2022-12-11T04:46:06;4.20;99.90
26081;DHT22;13991;51.174;4.438;2022-12-11T04:48:32;4.20;99.90
26081;DHT22;13991;51.174;4.438;2022-12-11T04:50:58;4.30;99.90
26081;DHT22;13991;51.174;4.438;2022-12-11T04:53:24;4.20;99.90
26081;DHT22;13991;51.174;4.438;2022-12-11T04:55:50;4.20;99.90
26081;DHT22;13991;51.174;4.438;2022-12-11T04:58:16;4.30;99.90
26081;DHT22;13991;51.174;4.438;2022-12-11T05:00:41;4.10;99.90
26081;DHT22;13991;51.174;4.438;2022-12-11T05:03:07;4.10;99.90
26081;DHT22;13991;51.174;4.438;2022-12-11T05:05:33;4.00;99.90
26081;DHT22;13991;51.174;4.438;2022-12-11T05:07:59;4.00;99.90
26081;DHT22;13991;51.174;4.438;2022-12-11T05:10:24;4.20;99.90
26081;DHT22;13991;51.174;4.438;2022-12-11T05:12:50;4.10;99.90
26081;DHT22;13991;51.174;4.438;2022-12-11T05:15:16;4.20;99.90
26081;DHT22;13991;51.174;4.438;2022-12-11T05:17:42;4.10;99.90
26081;DHT22;13991;51.174;4.438;2022-12-11T05:20:08;4.20;99.90
26081;DHT22;13991;51.174;4.438;2022-12-11T05:22:35;4.20;99.90
26081;DHT22;13991;51.174;4.438;2022-12-11T05:25:01;4.20;99.90
26081;DHT22;13991;51.174;4.438;2022-12-11T05:27:27;4.30;99.90
26081;DHT22;13991;51.174;4.438;2022-12-11T05:29:52;4.50;99.90
26081;DHT22;13991;51.174;4.438;2022-12-11T05:32:18;4.30;99.90
26081;DHT22;13991;51.174;4.438;2022-12-11T05:34:43;4.40;99.90
26081;DHT22;13991;51.174;4.438;2022-12-11T05:37:09;4.30;99.90
26081;DHT22;13991;51.174;4.438;2022-12-11T05:39:35;4.30;99.90
26081;DHT22;13991;51.174;4.438;2022-12-11T05:42:01;4.30;99.90
26081;DHT22;13991;51.174;4.438;2022-12-11T05:44:27;4.30;99.90
26081;DHT22;13991;51.174;4.438;2022-12-11T05:46:52;4.50;99.90
26081;DHT22;13991;51.174;4.438;2022-12-11T05:49:18;4.40;99.90
26081;DHT22;13991;51.174;4.438;2022-12-11T05:51:44;4.30;99.90
26081;DHT22;13991;51.174;4.438;2022-12-11T05:54:10;4.20;99.90
26081;DHT22;13991;51.174;4.438;2022-12-11T05:56:36;4.20;99.90
26081;DHT22;13991;51.174;4.438;2022-12-11T05:59:04;4.20;99.90
26081;DHT22;13991;51.174;4.438;2022-12-11T06:01:35;4.20;99.90
26081;DHT22;13991;51.174;4.438;2022-12-11T06:04:01;4.20;99.90
26081;DHT22;13991;51.174;4.438;2022-12-11T06:06:27;4.30;99.90
26081;DHT22;13991;51.174;4.438;2022-12-11T06:08:55;4.30;99.90
26081;DHT22;13991;51.174;4.438;2022-12-11T06:11:22;4.30;99.90
26081;DHT22;13991;51.174;4.438;2022-12-11T06:13:48;4.30;99.90
26081;DHT22;13991;51.174;4.438;2022-12-11T06:16:14;4.30;99.90
26081;DHT22;13991;51.174;4.438;2022-12-11T06:18:41;4.30;99.90
26081;DHT22;13991;51.174;4.438;2022-12-11T06:23:38;4.30;99.90
26081;DHT22;13991;51.174;4.438;2022-12-11T06:26:03;4.30;99.90
26081;DHT22;13991;51.174;4.438;2022-12-11T06:28:29;4.30;99.90
26081;DHT22;13991;51.174;4.438;2022-12-11T06:30:58;4.40;99.90
26081;DHT22;13991;51.174;4.438;2022-12-11T06:33:23;4.30;99.90
26081;DHT22;13991;51.174;4.438;2022-12-11T06:35:50;4.30;99.90
26081;DHT22;13991;51.174;4.438;2022-12-11T06:38:15;4.30;99.90
26081;DHT22;13991;51.174;4.438;2022-12-11T06:40:42;4.40;99.90
26081;DHT22;13991;51.174;4.438;2022-12-11T06:43:07;4.30;99.90
26081;DHT22;13991;51.174;4.438;2022-12-11T06:45:33;4.30;99.90
26081;DHT22;13991;51.174;4.438;2022-12-11T06:47:58;4.30;99.90
26081;DHT22;13991;51.174;4.438;2022-12-11T06:50:24;4.30;99.90
26081;DHT22;13991;51.174;4.438;2022-12-11T06:52:55;4.40;99.90
26081;DHT22;13991;51.174;4.438;2022-12-11T06:55:21;4.20;99.90
26081;DHT22;13991;51.174;4.438;2022-12-11T06:57:46;4.10;99.90
26081;DHT22;13991;51.174;4.438;2022-12-11T07:00:14;4.00;99.90
26081;DHT22;13991;51.174;4.438;2022-12-11T07:02:40;4.00;99.90
26081;DHT22;13991;51.174;4.438;2022-12-11T07:05:06;4.00;99.90
26081;DHT22;13991;51.174;4.438;2022-12-11T07:07:32;4.00;99.90
26081;DHT22;13991;51.174;4.438;2022-12-11T07:09:57;4.10;99.90
26081;DHT22;13991;51.174;4.438;2022-12-11T07:12:23;4.10;99.90
26081;DHT22;13991;51.174;4.438;2022-12-11T07:14:49;4.20;99.90
26081;DHT22;13991;51.174;4.438;2022-12-11T07:17:14;4.20;99.90
26081;DHT22;13991;51.174;4.438;2022-12-11T07:19:40;4.30;99.90
26081;DHT22;13991;51.174;4.438;2022-12-11T07:22:06;4.20;99.90
26081;DHT22;13991;51.174;4.438;2022-12-11T07:24:32;4.20;99.90
26081;DHT22;13991;51.174;4.438;2022-12-11T07:26:57;4.30;99.90
26081;DHT22;13991;51.174;4.438;2022-12-11T07:29:23;4.30;99.90
26081;DHT22;13991;51.174;4.438;2022-12-11T07:31:49;4.40;99.90
26081;DHT22;13991;51.174;4.438;2022-12-11T07:34:15;4.30;99.90
26081;DHT22;13991;51.174;4.438;2022-12-11T07:36:42;4.20;99.90
26081;DHT22;13991;51.174;4.438;2022-12-11T07:39:09;4.20;99.90
26081;DHT22;13991;51.174;4.438;2022-12-11T07:41:35;4.30;99.90
26081;DHT22;13991;51.174;4.438;2022-12-11T07:44:01;4.20;99.90
26081;DHT22;13991;51.174;4.438;2022-12-11T07:46:29;4.20;99.90
26081;DHT22;13991;51.174;4.438;2022-12-11T07:48:55;4.20;99.90
26081;DHT22;13991;51.174;4.438;2022-12-11T07:51:24;4.30;99.90
26081;DHT22;13991;51.174;4.438;2022-12-11T07:53:54;4.30;99.90
26081;DHT22;13991;51.174;4.438;2022-12-11T07:56:21;4.10;99.90
26081;DHT22;13991;51.174;4.438;2022-12-11T07:58:46;4.10;99.90
26081;DHT22;13991;51.174;4.438;2022-12-11T08:01:21;4.10;99.90
26081;DHT22;13991;51.174;4.438;2022-12-11T08:03:47;3.90;99.90
26081;DHT22;13991;51.174;4.438;2022-12-11T08:06:13;3.90;99.90
26081;DHT22;13991;51.174;4.438;2022-12-11T08:08:39;4.00;99.90
26081;DHT22;13991;51.174;4.438;2022-12-11T08:11:09;4.00;99.90
26081;DHT22;13991;51.174;4.438;2022-12-11T08:13:35;4.00;99.90
26081;DHT22;13991;51.174;4.438;2022-12-11T08:16:05;4.10;99.90
26081;DHT22;13991;51.174;4.438;2022-12-11T08:18:33;4.10;99.90
26081;DHT22;13991;51.174;4.438;2022-12-11T08:21:03;4.10;99.90
26081;DHT22;13991;51.174;4.438;2022-12-11T08:23:28;4.20;99.90
26081;DHT22;13991;51.174;4.438;2022-12-11T08:25:54;4.10;99.90
26081;DHT22;13991;51.174;4.438;2022-12-11T08:28:20;4.20;99.90
26081;DHT22;13991;51.174;4.438;2022-12-11T08:30:45;4.20;99.90
26081;DHT22;13991;51.174;4.438;2022-12-11T08:33:11;4.20;99.90
26081;DHT22;13991;51.174;4.438;2022-12-11T08:35:40;4.10;99.90
26081;DHT22;13991;51.174;4.438;2022-12-11T08:38:05;4.20;99.90
26081;DHT22;13991;51.174;4.438;2022-12-11T08:40:31;4.20;99.90
26081;DHT22;13991;51.174;4.438;2022-12-11T08:42:57;4.10;99.90
26081;DHT22;13991;51.174;4.438;2022-12-11T08:45:22;4.20;99.90
26081;DHT22;13991;51.174;4.438;2022-12-11T08:47:48;4.20;99.90
26081;DHT22;13991;51.174;4.438;2022-12-11T08:50:14;4.10;99.90
26081;DHT22;13991;51.174;4.438;2022-12-11T08:52:39;4.20;99.90
26081;DHT22;13991;51.174;4.438;2022-12-11T08:55:05;4.20;99.90
26081;DHT22;13991;51.174;4.438;2022-12-11T08:57:31;4.20;99.90
26081;DHT22;13991;51.174;4.438;2022-12-11T08:59:57;4.10;99.90
26081;DHT22;13991;51.174;4.438;2022-12-11T09:02:22;4.20;99.90
26081;DHT22;13991;51.174;4.438;2022-12-11T09:04:48;4.30;99.90
26081;DHT22;13991;51.174;4.438;2022-12-11T09:07:13;4.30;99.90
26081;DHT22;13991;51.174;4.438;2022-12-11T09:09:39;4.30;99.90
26081;DHT22;13991;51.174;4.438;2022-12-11T09:12:05;4.30;99.90
26081;DHT22;13991;51.174;4.438;2022-12-11T09:14:30;4.30;99.90
26081;DHT22;13991;51.174;4.438;2022-12-11T09:16:56;4.30;99.90
26081;DHT22;13991;51.174;4.438;2022-12-11T09:19:22;4.50;99.90
26081;DHT22;13991;51.174;4.438;2022-12-11T09:21:47;4.40;99.90
26081;DHT22;13991;51.174;4.438;2022-12-11T09:24:13;4.50;99.90
26081;DHT22;13991;51.174;4.438;2022-12-11T09:26:40;4.50;99.90
26081;DHT22;13991;51.174;4.438;2022-12-11T09:29:06;4.50;99.90
26081;DHT22;13991;51.174;4.438;2022-12-11T09:31:34;4.40;99.90
26081;DHT22;13991;51.174;4.438;2022-12-11T09:34:03;4.50;99.90
26081;DHT22;13991;51.174;4.438;2022-12-11T09:36:29;4.60;99.90
26081;DHT22;13991;51.174;4.438;2022-12-11T09:38:55;4.60;99.90
26081;DHT22;13991;51.174;4.438;2022-12-11T09:41:38;4.60;99.90
26081;DHT22;13991;51.174;4.438;2022-12-11T09:47:01;4.40;99.90
26081;DHT22;13991;51.174;4.438;2022-12-11T09:49:40;4.40;99.90
26081;DHT22;13991;51.174;4.438;2022-12-11T09:52:26;4.60;99.90
26081;DHT22;13991;51.174;4.438;2022-12-11T09:55:01;4.50;99.90
26081;DHT22;13991;51.174;4.438;2022-12-11T10:00:31;4.40;99.90
26081;DHT22;13991;51.174;4.438;2022-12-11T10:04:00;4.40;99.90
26081;DHT22;13991;51.174;4.438;2022-12-11T10:08:59;4.40;99.90
26081;DHT22;13991;51.174;4.438;2022-12-11T10:16:49;4.40;99.90
26081;DHT22;13991;51.174;4.438;2022-12-11T10:19:25;4.40;99.90
26081;DHT22;13991;51.174;4.438;2022-12-11T10:21:52;4.40;99.90
26081;DHT22;13991;51.174;4.438;2022-12-11T10:25:20;4.50;99.90
26081;DHT22;13991;51.174;4.438;2022-12-11T10:27:32;4.50;99.90
26081;DHT22;13991;51.174;4.438;2022-12-11T10:32:48;4.60;99.90
26081;DHT22;13991;51.174;4.438;2022-12-11T10:38:08;4.30;99.90
26081;DHT22;13991;51.174;4.438;2022-12-11T10:40:37;4.30;99.90
26081;DHT22;13991;51.174;4.438;2022-12-11T10:43:04;4.40;99.90
26081;DHT22;13991;51.174;4.438;2022-12-11T10:45:30;4.50;99.90
26081;DHT22;13991;51.174;4.438;2022-12-11T10:48:22;4.50;99.90
26081;DHT22;13991;51.174;4.438;2022-12-11T10:51:01;4.40;99.90
26081;DHT22;13991;51.174;4.438;2022-12-11T10:53:28;4.50;99.90
26081;DHT22;13991;51.174;4.438;2022-12-11T10:55:55;4.50;99.90
26081;DHT22;13991;51.174;4.438;2022-12-11T10:58:25;4.50;99.90
26081;DHT22;13991;51.174;4.438;2022-12-11T11:01:05;4.50;99.90
26081;DHT22;13991;51.174;4.438;2022-12-11T11:03:33;4.50;99.90
26081;DHT22;13991;51.174;4.438;2022-12-11T11:06:14;4.50;99.90
26081;DHT22;13991;51.174;4.438;2022-12-11T11:08:43;4.50;99.90
26081;DHT22;13991;51.174;4.438;2022-12-11T11:13:49;4.60;99.90
26081;DHT22;13991;51.174;4.438;2022-12-11T11:16:17;4.50;99.90
26081;DHT22;13991;51.174;4.438;2022-12-11T11:18:53;4.50;99.90
26081;DHT22;13991;51.174;4.438;2022-12-11T11:21:21;4.60;99.90
26081;DHT22;13991;51.174;4.438;2022-12-11T11:23:49;4.50;99.90
26081;DHT22;13991;51.174;4.438;2022-12-11T11:26:15;4.50;99.90
26081;DHT22;13991;51.174;4.438;2022-12-11T11:28:50;4.50;99.90
26081;DHT22;13991;51.174;4.438;2022-12-11T11:31:17;4.60;99.90
26081;DHT22;13991;51.174;4.438;2022-12-11T11:34:04;4.60;99.90
26081;DHT22;13991;51.174;4.438;2022-12-11T11:36:33;4.70;99.90
26081;DHT22;13991;51.174;4.438;2022-12-11T11:44:37;4.70;99.90
26081;DHT22;13991;51.174;4.438;2022-12-11T11:47:18;4.70;99.90
26081;DHT22;13991;51.174;4.438;2022-12-11T11:49:54;4.80;99.90
26081;DHT22;13991;51.174;4.438;2022-12-11T11:52:31;4.90;99.90
26081;DHT22;13991;51.174;4.438;2022-12-11T11:55:18;5.10;99.90
26081;DHT22;13991;51.174;4.438;2022-12-11T11:57:56;5.10;99.90
26081;DHT22;13991;51.174;4.438;2022-12-11T12:00:26;5.20;99.90
26081;DHT22;13991;51.174;4.438;2022-12-11T12:03:11;5.20;99.90
26081;DHT22;13991;51.174;4.438;2022-12-11T12:11:36;5.10;99.90
26081;DHT22;13991;51.174;4.438;2022-12-11T12:14:07;5.10;99.90
26081;DHT22;13991;51.174;4.438;2022-12-11T12:16:52;5.10;99.90
26081;DHT22;13991;51.174;4.438;2022-12-11T12:30:34;5.10;99.90
26081;DHT22;13991;51.174;4.438;2022-12-11T12:36:05;5.10;99.90
26081;DHT22;13991;51.174;4.438;2022-12-11T12:38:53;5.10;99.90
26081;DHT22;13991;51.174;4.438;2022-12-11T12:44:16;5.10;99.90
26081;DHT22;13991;51.174;4.438;2022-12-11T12:46:59;5.20;99.90
26081;DHT22;13991;51.174;4.438;2022-12-11T12:49:47;5.20;99.90
26081;DHT22;13991;51.174;4.438;2022-12-11T12:54:56;5.20;99.90
26081;DHT22;13991;51.174;4.438;2022-12-11T12:57:55;5.10;99.90
26081;DHT22;13991;51.174;4.438;2022-12-11T13:00:41;5.10;99.90
26081;DHT22;13991;51.174;4.438;2022-12-11T13:05:41;5.10;99.90
26081;DHT22;13991;51.174;4.438;2022-12-11T13:08:08;5.10;99.90
26081;DHT22;13991;51.174;4.438;2022-12-11T13:10:36;5.10;99.90
26081;DHT22;13991;51.174;4.438;2022-12-11T13:13:04;5.10;99.90
26081;DHT22;13991;51.174;4.438;2022-12-11T13:15:39;5.10;99.90
26081;DHT22;13991;51.174;4.438;2022-12-11T13:20:57;5.30;99.90
26081;DHT22;13991;51.174;4.438;2022-12-11T13:23:33;5.30;99.90
26081;DHT22;13991;51.174;4.438;2022-12-11T13:26:01;5.20;99.90
26081;DHT22;13991;51.174;4.438;2022-12-11T13:31:07;5.20;99.90
26081;DHT22;13991;51.174;4.438;2022-12-11T13:33:53;5.20;99.90
26081;DHT22;13991;51.174;4.438;2022-12-11T13:38:49;5.20;99.90
26081;DHT22;13991;51.174;4.438;2022-12-11T13:41:17;5.10;99.90
26081;DHT22;13991;51.174;4.438;2022-12-11T13:43:46;5.10;99.90
26081;DHT22;13991;51.174;4.438;2022-12-11T13:46:12;5.20;99.90
26081;DHT22;13991;51.174;4.438;2022-12-11T13:48:47;5.10;99.90
26081;DHT22;13991;51.174;4.438;2022-12-11T13:51:20;5.20;99.90
26081;DHT22;13991;51.174;4.438;2022-12-11T13:53:46;5.20;99.90
26081;DHT22;13991;51.174;4.438;2022-12-11T13:56:20;5.20;99.90
26081;DHT22;13991;51.174;4.438;2022-12-11T13:58:47;5.00;99.90
26081;DHT22;13991;51.174;4.438;2022-12-11T14:01:28;4.90;99.90
26081;DHT22;13991;51.174;4.438;2022-12-11T14:04:09;4.90;99.90
26081;DHT22;13991;51.174;4.438;2022-12-11T14:06:37;4.90;99.90
26081;DHT22;13991;51.174;4.438;2022-12-11T14:09:04;4.90;99.90
26081;DHT22;13991;51.174;4.438;2022-12-11T14:11:36;4.90;99.90
26081;DHT22;13991;51.174;4.438;2022-12-11T14:14:06;4.80;99.90
26081;DHT22;13991;51.174;4.438;2022-12-11T14:16:32;4.80;99.90
26081;DHT22;13991;51.174;4.438;2022-12-11T14:19:04;5.00;99.90
26081;DHT22;13991;51.174;4.438;2022-12-11T14:21:30;4.90;99.90
26081;DHT22;13991;51.174;4.438;2022-12-11T14:23:58;4.80;99.90
26081;DHT22;13991;51.174;4.438;2022-12-11T14:26:51;4.80;99.90
26081;DHT22;13991;51.174;4.438;2022-12-11T14:29:25;4.80;99.90
26081;DHT22;13991;51.174;4.438;2022-12-11T14:31:51;4.80;99.90
26081;DHT22;13991;51.174;4.438;2022-12-11T14:34:31;4.80;99.90
26081;DHT22;13991;51.174;4.438;2022-12-11T14:36:59;4.80;99.90
26081;DHT22;13991;51.174;4.438;2022-12-11T14:42:03;4.70;99.90
26081;DHT22;13991;51.174;4.438;2022-12-11T14:44:34;4.70;99.90
26081;DHT22;13991;51.174;4.438;2022-12-11T14:47:10;4.50;99.90
26081;DHT22;13991;51.174;4.438;2022-12-11T14:52:42;4.50;99.90
26081;DHT22;13991;51.174;4.438;2022-12-11T14:55:19;4.50;99.90
26081;DHT22;13991;51.174;4.438;2022-12-11T14:57:49;4.50;99.90
26081;DHT22;13991;51.174;4.438;2022-12-11T15:02:59;4.60;99.90
26081;DHT22;13991;51.174;4.438;2022-12-11T15:05:26;4.60;99.90
26081;DHT22;13991;51.174;4.438;2022-12-11T15:07:58;4.60;99.90
26081;DHT22;13991;51.174;4.438;2022-12-11T15:10:25;4.60;99.90
26081;DHT22;13991;51.174;4.438;2022-12-11T15:12:52;4.60;99.90
26081;DHT22;13991;51.174;4.438;2022-12-11T15:15:19;4.60;99.90
26081;DHT22;13991;51.174;4.438;2022-12-11T15:17:47;4.40;99.90
26081;DHT22;13991;51.174;4.438;2022-12-11T15:20:35;4.50;99.90
26081;DHT22;13991;51.174;4.438;2022-12-11T15:23:01;4.50;99.90
26081;DHT22;13991;51.174;4.438;2022-12-11T15:25:28;4.50;99.90
26081;DHT22;13991;51.174;4.438;2022-12-11T15:27:56;4.50;99.90
26081;DHT22;13991;51.174;4.438;2022-12-11T15:30:23;4.60;99.90
26081;DHT22;13991;51.174;4.438;2022-12-11T15:35:38;4.70;99.90
26081;DHT22;13991;51.174;4.438;2022-12-11T15:38:04;4.60;99.90
26081;DHT22;13991;51.174;4.438;2022-12-11T15:40:30;4.60;99.90
26081;DHT22;13991;51.174;4.438;2022-12-11T15:42:57;4.60;99.90
26081;DHT22;13991;51.174;4.438;2022-12-11T15:45:26;4.60;99.90
26081;DHT22;13991;51.174;4.438;2022-12-11T15:47:55;4.70;99.90
26081;DHT22;13991;51.174;4.438;2022-12-11T15:50:24;4.60;99.90
26081;DHT22;13991;51.174;4.438;2022-12-11T15:52:52;4.60;99.90
26081;DHT22;13991;51.174;4.438;2022-12-11T15:55:19;4.60;99.90
26081;DHT22;13991;51.174;4.438;2022-12-11T15:57:57;4.60;99.90
26081;DHT22;13991;51.174;4.438;2022-12-11T16:00:23;4.60;99.90
26081;DHT22;13991;51.174;4.438;2022-12-11T16:02:50;4.50;99.90
26081;DHT22;13991;51.174;4.438;2022-12-11T16:05:16;4.50;99.90
26081;DHT22;13991;51.174;4.438;2022-12-11T16:07:42;4.50;99.90
26081;DHT22;13991;51.174;4.438;2022-12-11T16:10:15;4.40;99.90
26081;DHT22;13991;51.174;4.438;2022-12-11T16:12:42;4.50;99.90
26081;DHT22;13991;51.174;4.438;2022-12-11T16:15:09;4.50;99.90
26081;DHT22;13991;51.174;4.438;2022-12-11T16:17:35;4.50;99.90
26081;DHT22;13991;51.174;4.438;2022-12-11T16:20:01;4.50;99.90
26081;DHT22;13991;51.174;4.438;2022-12-11T16:22:26;4.50;99.90
26081;DHT22;13991;51.174;4.438;2022-12-11T16:24:55;4.50;99.90
26081;DHT22;13991;51.174;4.438;2022-12-11T16:27:21;4.40;99.90
26081;DHT22;13991;51.174;4.438;2022-12-11T16:29:47;4.40;99.90
26081;DHT22;13991;51.174;4.438;2022-12-11T16:32:12;4.40;99.90
26081;DHT22;13991;51.174;4.438;2022-12-11T16:34:38;4.40;99.90
26081;DHT22;13991;51.174;4.438;2022-12-11T16:37:05;4.30;99.90
26081;DHT22;13991;51.174;4.438;2022-12-11T16:39:32;4.30;99.90
26081;DHT22;13991;51.174;4.438;2022-12-11T16:41:58;4.30;99.90
26081;DHT22;13991;51.174;4.438;2022-12-11T16:44:25;4.40;99.90
26081;DHT22;13991;51.174;4.438;2022-12-11T16:46:52;4.30;99.90
26081;DHT22;13991;51.174;4.438;2022-12-11T16:49:18;4.30;99.90
26081;DHT22;13991;51.174;4.438;2022-12-11T16:51:44;4.20;99.90
26081;DHT22;13991;51.174;4.438;2022-12-11T16:54:10;4.20;99.90
26081;DHT22;13991;51.174;4.438;2022-12-11T16:56:37;4.40;99.90
26081;DHT22;13991;51.174;4.438;2022-12-11T16:59:03;4.30;99.90
26081;DHT22;13991;51.174;4.438;2022-12-11T17:01:30;4.40;99.90
26081;DHT22;13991;51.174;4.438;2022-12-11T17:03:56;4.30;99.90
26081;DHT22;13991;51.174;4.438;2022-12-11T17:06:22;4.30;99.90
26081;DHT22;13991;51.174;4.438;2022-12-11T17:08:47;4.30;99.90
26081;DHT22;13991;51.174;4.438;2022-12-11T17:11:17;4.20;99.90
26081;DHT22;13991;51.174;4.438;2022-12-11T17:13:43;4.20;99.90
26081;DHT22;13991;51.174;4.438;2022-12-11T17:16:15;4.30;99.90
26081;DHT22;13991;51.174;4.438;2022-12-11T17:18:42;4.30;99.90
26081;DHT22;13991;51.174;4.438;2022-12-11T17:21:09;4.30;99.90